Ashby, Massachusetts
Current Conditions -  °F | °C
As of 8:52 AM on Friday 24 Oct 2014 (Local Time) from KFIT Reporting Station
Overcast Overcast  
Wind Chill: 50°   Ceiling: 2700
Heat Index: 50°   Visibility: 10mi
Dew Point: 45°   Wind: 7mph
Humidity: 83%   Direction: 320°NW
Pressure: 29.74"   Gusts: NA
Location:  42.68°N, 71.82°W
Report Text: KFIT 241252Z AUTO 32006KT 10SM FEW015 OVC027 10/07 A2974 RMK AO2 SLP072 T01000072
Loading
Personal Weather Stations






























Interactive Weather Map
Tropical Storm Tracking
New forecast layout! Learn more

10-Day Weather Forecast

Advertisements
Track Severe Weather on mobile